createdAt,value
2019-02-09T00:01:35.559Z,42.80
2019-02-09T00:03:42.914Z,41.63
2019-02-09T00:05:50.419Z,39.53
2019-02-09T00:07:57.819Z,39.80
2019-02-09T00:10:05.216Z,41.63
2019-02-09T00:12:12.742Z,40.30
2019-02-09T00:14:20.092Z,40.33
2019-02-09T00:16:28.607Z,39.77
2019-02-09T00:18:35.969Z,40.40
2019-02-09T00:20:43.528Z,40.53
2019-02-09T00:22:50.808Z,40.53
2019-02-09T00:24:58.189Z,40.60
2019-02-09T00:27:05.752Z,40.53
2019-02-09T00:29:13.001Z,42.53
2019-02-09T00:31:20.445Z,39.57
2019-02-09T00:33:27.748Z,40.23
2019-02-09T00:35:35.128Z,40.90
2019-02-09T00:37:42.618Z,42.90
2019-02-09T00:39:50.181Z,45.23
2019-02-09T00:41:57.499Z,44.60
2019-02-09T00:44:04.923Z,46.03
2019-02-09T00:46:12.779Z,45.87
2019-02-09T00:48:20.166Z,46.30
2019-02-09T00:50:27.765Z,46.43
2019-02-09T00:52:35.259Z,47.57
2019-02-09T00:54:42.507Z,46.47
2019-02-09T00:56:49.853Z,46.40
2019-02-09T00:58:57.478Z,45.80
2019-02-09T01:01:04.941Z,48.10
2019-02-09T01:03:12.492Z,46.53
2019-02-09T01:05:22.686Z,45.37
2019-02-09T01:07:30.210Z,45.03
2019-02-09T01:09:37.640Z,44.90
2019-02-09T01:11:45.346Z,43.87
2019-02-09T01:13:52.694Z,43.23
2019-02-09T01:16:00.165Z,42.43
2019-02-09T01:18:07.946Z,45.57
2019-02-09T01:20:21.505Z,42.47
2019-02-09T01:22:29.032Z,42.93
2019-02-09T01:24:36.575Z,45.30
2019-02-09T01:26:43.972Z,42.50
2019-02-09T01:28:51.514Z,46.43
2019-02-09T01:30:58.861Z,44.30
2019-02-09T01:33:06.289Z,45.70
2019-02-09T01:35:14.079Z,42.50
2019-02-09T01:37:21.620Z,44.90
2019-02-09T01:39:29.113Z,43.47
2019-02-09T01:41:36.593Z,42.57
2019-02-09T01:43:43.994Z,44.80
2019-02-09T01:45:51.306Z,43.43
2019-02-09T01:47:58.590Z,42.83
2019-02-09T01:50:07.287Z,41.97
2019-02-09T01:52:14.647Z,42.10
2019-02-09T01:54:21.988Z,41.57
2019-02-09T01:56:29.430Z,41.97
2019-02-09T01:58:36.892Z,42.90
2019-02-09T02:00:44.349Z,43.73
2019-02-09T02:02:51.913Z,42.73
2019-02-09T02:04:59.447Z,43.33
2019-02-09T02:07:06.937Z,43.33
2019-02-09T02:09:14.452Z,42.43
2019-02-09T02:11:21.928Z,41.53
2019-02-09T02:13:29.439Z,44.33
2019-02-09T02:15:37.357Z,40.57
2019-02-09T02:17:44.862Z,40.83
2019-02-09T02:19:52.190Z,41.73
2019-02-09T02:21:59.612Z,43.50
2019-02-09T02:24:07.059Z,43.33
2019-02-09T02:26:17.963Z,42.03
2019-02-09T02:28:25.684Z,41.47
2019-02-09T02:30:35.791Z,44.43
2019-02-09T02:32:43.185Z,41.37
2019-02-09T02:34:50.711Z,38.90
2019-02-09T02:36:58.073Z,43.20
2019-02-09T02:39:07.978Z,39.00
2019-02-09T02:41:15.391Z,39.37
2019-02-09T02:43:22.911Z,41.67
2019-02-09T02:45:30.255Z,43.20
2019-02-09T02:47:37.700Z,40.00
2019-02-09T02:49:45.058Z,40.73
2019-02-09T02:51:52.631Z,39.07
2019-02-09T02:54:00.191Z,38.90
2019-02-09T02:56:07.674Z,39.13
2019-02-09T02:58:14.959Z,42.97
2019-02-09T03:00:31.841Z,40.00
2019-02-09T03:02:33.869Z,41.23
2019-02-09T03:04:41.374Z,38.93
2019-02-09T03:06:48.848Z,38.53
2019-02-09T03:08:56.314Z,38.60
2019-02-09T03:11:03.773Z,40.13
2019-02-09T03:13:11.252Z,41.47
2019-02-09T03:15:24.468Z,38.57
2019-02-09T03:17:31.886Z,37.40
2019-02-09T03:19:39.103Z,36.63
2019-02-09T03:21:46.429Z,42.87
2019-02-09T03:23:53.908Z,37.47
2019-02-09T03:26:01.299Z,37.10
2019-02-09T03:28:08.906Z,40.40
2019-02-09T03:30:17.371Z,38.93
2019-02-09T03:32:24.844Z,40.83
2019-02-09T03:34:32.211Z,37.87
2019-02-09T03:36:39.664Z,45.07
2019-02-09T03:38:47.073Z,42.73
2019-02-09T03:40:54.545Z,37.70
2019-02-09T03:43:01.787Z,39.67
2019-02-09T03:45:12.971Z,38.00
2019-02-09T03:47:21.489Z,36.87
2019-02-09T03:49:28.947Z,39.30
2019-02-09T03:51:36.386Z,43.90
2019-02-09T03:53:43.794Z,40.90
2019-02-09T03:55:51.189Z,37.30
2019-02-09T03:57:58.560Z,37.07
2019-02-09T04:00:09.498Z,36.23
2019-02-09T04:02:16.944Z,39.00
2019-02-09T04:04:24.372Z,38.70
2019-02-09T04:06:31.772Z,37.97
2019-02-09T04:08:39.237Z,41.17
2019-02-09T04:10:46.680Z,40.70
2019-02-09T04:12:53.896Z,42.40
2019-02-09T04:15:01.175Z,39.53
2019-02-09T04:17:08.476Z,39.87
2019-02-09T04:19:15.986Z,36.03
2019-02-09T04:21:23.430Z,41.17
2019-02-09T04:23:30.878Z,37.30
2019-02-09T04:25:38.248Z,39.57
2019-02-09T04:27:45.755Z,36.00
2019-02-09T04:29:52.927Z,34.57
2019-02-09T04:32:00.317Z,38.70
2019-02-09T04:34:07.858Z,35.07
2019-02-09T04:36:15.308Z,39.67
2019-02-09T04:38:22.731Z,33.90
2019-02-09T04:40:33.767Z,36.73
2019-02-09T04:42:41.153Z,36.10
2019-02-09T04:44:48.487Z,35.07
2019-02-09T04:46:55.861Z,33.70
2019-02-09T04:49:03.285Z,36.67
2019-02-09T04:51:10.657Z,34.40
2019-02-09T04:53:17.950Z,35.10
2019-02-09T04:55:26.122Z,35.77
2019-02-09T04:57:33.530Z,33.20
2019-02-09T04:59:40.915Z,35.43
2019-02-09T05:01:48.295Z,33.57
2019-02-09T05:03:55.754Z,34.60
2019-02-09T05:06:03.158Z,33.27
2019-02-09T05:08:10.409Z,35.17
2019-02-09T05:10:18.501Z,35.90
2019-02-09T05:12:25.947Z,37.33
2019-02-09T05:14:33.310Z,35.10
2019-02-09T05:16:40.747Z,33.03
2019-02-09T05:18:48.055Z,34.17
2019-02-09T05:20:55.402Z,33.93
2019-02-09T05:23:02.639Z,33.93
2019-02-09T05:25:10.464Z,34.07
2019-02-09T05:27:18.087Z,32.83
2019-02-09T05:29:25.282Z,33.43
2019-02-09T05:31:32.742Z,32.10
2019-02-09T05:33:41.126Z,33.13
2019-02-09T05:35:48.668Z,30.53
2019-02-09T05:37:55.951Z,30.50
2019-02-09T05:40:03.468Z,30.10
2019-02-09T05:42:10.835Z,31.63
2019-02-09T05:44:18.310Z,30.40
2019-02-09T05:46:25.607Z,30.63
2019-02-09T05:48:33.083Z,27.90
2019-02-09T05:50:40.542Z,30.17
2019-02-09T05:52:48.005Z,29.50
2019-02-09T05:54:55.449Z,31.00
2019-02-09T05:57:02.930Z,29.67
2019-02-09T05:59:10.242Z,30.07
2019-02-09T06:01:17.831Z,33.90
2019-02-09T06:03:25.271Z,33.13
2019-02-09T06:05:32.736Z,33.30
2019-02-09T06:07:40.246Z,34.13
2019-02-09T06:09:47.630Z,31.33
2019-02-09T06:11:54.944Z,39.43
2019-02-09T06:14:02.414Z,31.87
2019-02-09T06:16:09.705Z,31.83
2019-02-09T06:18:17.179Z,31.93
2019-02-09T06:20:26.085Z,31.27
2019-02-09T06:22:33.474Z,29.63
2019-02-09T06:24:40.888Z,31.70
2019-02-09T06:26:48.363Z,38.50
2019-02-09T06:28:55.676Z,44.53
2019-02-09T06:31:02.966Z,42.43
2019-02-09T06:33:10.238Z,41.47
2019-02-09T06:35:17.520Z,50.27
2019-02-09T06:37:24.854Z,40.70
2019-02-09T06:39:32.180Z,54.17
2019-02-09T06:41:39.619Z,42.13
2019-02-09T06:43:47.122Z,40.53
2019-02-09T06:45:54.465Z,49.17
2019-02-09T06:48:39.301Z,42.43
2019-02-09T06:50:46.759Z,41.73
2019-02-09T06:52:54.094Z,38.90
2019-02-09T06:55:01.671Z,37.97
2019-02-09T06:57:08.998Z,48.83
2019-02-09T06:59:16.445Z,48.80
2019-02-09T07:01:23.803Z,55.03
2019-02-09T07:03:31.345Z,50.60
2019-02-09T07:05:38.890Z,45.00
2019-02-09T07:07:46.422Z,40.07
2019-02-09T07:09:53.712Z,39.30
2019-02-09T07:12:01.140Z,36.30
2019-02-09T07:14:08.589Z,37.07
2019-02-09T07:16:15.996Z,39.53
2019-02-09T07:18:23.414Z,49.50
2019-02-09T07:20:30.677Z,47.40
2019-02-09T07:22:37.977Z,43.20
2019-02-09T07:24:45.422Z,54.30
2019-02-09T07:26:52.640Z,62.07
2019-02-09T07:29:00.113Z,70.60
2019-02-09T07:31:07.573Z,74.83
2019-02-09T07:33:15.027Z,61.53
2019-02-09T07:35:22.467Z,64.60
2019-02-09T07:37:29.772Z,54.83
2019-02-09T07:39:37.220Z,56.67
2019-02-09T07:41:44.329Z,61.13
2019-02-09T07:43:51.701Z,56.83
2019-02-09T07:45:58.896Z,61.33
2019-02-09T07:48:06.500Z,50.57
2019-02-09T07:50:15.777Z,55.13
2019-02-09T07:52:23.069Z,47.20
2019-02-09T07:54:30.556Z,57.57
2019-02-09T07:56:37.783Z,54.30
2019-02-09T07:58:45.050Z,66.53
2019-02-09T08:00:52.394Z,76.20
2019-02-09T08:02:59.610Z,61.23
2019-02-09T08:05:07.237Z,69.47
2019-02-09T08:07:14.879Z,65.77
2019-02-09T08:09:22.220Z,61.27
2019-02-09T08:11:29.418Z,61.47
2019-02-09T08:13:36.920Z,67.67
2019-02-09T08:15:44.222Z,56.77
2019-02-09T08:17:51.707Z,56.87
2019-02-09T08:19:59.290Z,63.03
2019-02-09T08:22:06.676Z,61.20
2019-02-09T08:24:13.901Z,64.47
2019-02-09T08:26:21.275Z,62.73
2019-02-09T08:28:28.516Z,65.13
2019-02-09T08:30:42.167Z,60.60
2019-02-09T08:32:49.467Z,55.83
2019-02-09T08:34:56.984Z,59.80
2019-02-09T08:37:04.701Z,62.63
2019-02-09T08:39:12.175Z,62.13
2019-02-09T08:41:19.349Z,44.03
2019-02-09T08:43:26.595Z,48.20
2019-02-09T08:45:34.133Z,46.83
2019-02-09T08:47:41.430Z,43.03
2019-02-09T08:49:48.801Z,52.40
2019-02-09T08:51:56.474Z,56.87
2019-02-09T08:54:03.830Z,57.77
2019-02-09T08:56:11.188Z,52.87
2019-02-09T08:58:18.661Z,49.90
2019-02-09T09:00:28.193Z,51.33
2019-02-09T09:02:35.508Z,38.80
2019-02-09T09:04:42.703Z,41.13
2019-02-09T09:06:50.175Z,39.17
2019-02-09T09:08:57.506Z,38.03
2019-02-09T09:11:04.807Z,37.37
2019-02-09T09:13:12.126Z,41.80
2019-02-09T09:15:33.260Z,53.27
2019-02-09T09:17:40.613Z,48.57
2019-02-09T09:19:47.967Z,49.57
2019-02-09T09:21:55.250Z,61.80
2019-02-09T09:24:02.572Z,45.97
2019-02-09T09:26:10.090Z,36.60
2019-02-09T09:28:17.360Z,37.20
2019-02-09T09:30:26.168Z,35.00
2019-02-09T09:32:33.768Z,30.77
2019-02-09T09:34:41.110Z,33.20
2019-02-09T09:36:48.846Z,32.00
2019-02-09T09:38:56.509Z,33.03
2019-02-09T09:41:03.890Z,32.77
2019-02-09T09:43:11.435Z,40.87
2019-02-09T09:45:22.654Z,43.10
2019-02-09T09:47:30.076Z,32.93
2019-02-09T09:49:37.511Z,30.37
2019-02-09T09:51:44.926Z,34.23
2019-02-09T09:53:52.214Z,36.33
2019-02-09T09:55:59.791Z,34.03
2019-02-09T09:58:07.388Z,31.30
2019-02-09T10:00:16.626Z,34.43
2019-02-09T10:02:23.903Z,33.47
2019-02-09T10:04:31.218Z,34.00
2019-02-09T10:06:38.354Z,38.90
2019-02-09T10:08:45.867Z,37.00
2019-02-09T10:11:26.202Z,30.50
2019-02-09T10:13:25.627Z,27.63
2019-02-09T10:15:33.272Z,25.97
2019-02-09T10:17:40.784Z,28.33
2019-02-09T10:20:01.097Z,24.97
2019-02-09T10:22:09.028Z,25.47
2019-02-09T10:24:16.447Z,25.37
2019-02-09T10:26:32.770Z,26.77
2019-02-09T10:28:40.543Z,24.73
2019-02-09T10:30:49.795Z,25.53
2019-02-09T10:32:57.191Z,26.00
2019-02-09T10:35:04.668Z,24.00
2019-02-09T10:37:12.118Z,25.03
2019-02-09T10:39:19.553Z,25.30
2019-02-09T10:41:27.170Z,25.63
2019-02-09T10:43:35.163Z,23.50
2019-02-09T10:45:43.243Z,22.07
2019-02-09T10:47:50.913Z,23.90
2019-02-09T10:50:00.678Z,23.03
2019-02-09T10:52:11.620Z,22.57
2019-02-09T10:54:24.021Z,22.23
2019-02-09T10:56:35.665Z,23.07
2019-02-09T10:58:44.181Z,20.20
2019-02-09T11:01:37.513Z,22.03
2019-02-09T11:03:47.001Z,21.47
2019-02-09T11:05:56.153Z,22.00
2019-02-09T11:08:05.286Z,22.30
2019-02-09T11:10:15.150Z,20.80
2019-02-09T11:12:24.147Z,21.37
2019-02-09T11:14:35.008Z,23.37
2019-02-09T11:16:44.777Z,19.43
2019-02-09T11:18:54.966Z,20.53
2019-02-09T11:21:04.710Z,21.37
2019-02-09T11:23:15.261Z,20.23
2019-02-09T11:25:23.044Z,20.97
2019-02-09T11:27:30.655Z,21.30
2019-02-09T11:29:38.169Z,24.97
2019-02-09T11:31:46.168Z,25.10
2019-02-09T11:33:53.661Z,22.23
2019-02-09T11:36:01.218Z,24.63
2019-02-09T11:38:08.705Z,23.03
2019-02-09T11:40:17.503Z,23.87
2019-02-09T11:42:26.438Z,22.03
2019-02-09T11:44:40.863Z,21.73
2019-02-09T11:46:43.267Z,22.17
2019-02-09T11:48:50.704Z,22.37
2019-02-09T11:50:59.102Z,21.50
2019-02-09T11:53:07.351Z,22.80
2019-02-09T11:55:15.955Z,25.33
2019-02-09T11:57:23.535Z,22.33
2019-02-09T11:59:31.148Z,23.57
2019-02-09T12:01:38.690Z,21.93
2019-02-09T12:03:46.122Z,22.07
2019-02-09T12:05:53.560Z,20.83
2019-02-09T12:08:01.175Z,20.73
2019-02-09T12:10:09.454Z,20.70
2019-02-09T12:12:16.670Z,21.57
2019-02-09T12:14:24.066Z,20.53
2019-02-09T12:16:31.506Z,19.90
2019-02-09T12:18:38.816Z,20.77
2019-02-09T12:20:46.244Z,20.33
2019-02-09T12:22:53.425Z,20.20
2019-02-09T12:25:00.731Z,19.10
2019-02-09T12:27:08.257Z,19.07
2019-02-09T12:29:15.738Z,20.87
2019-02-09T12:31:23.145Z,20.50
2019-02-09T12:33:30.633Z,18.23
2019-02-09T12:35:37.966Z,17.57
2019-02-09T12:37:45.452Z,18.07
2019-02-09T12:39:52.876Z,17.77
2019-02-09T12:42:00.526Z,18.40
2019-02-09T12:44:07.933Z,18.70
2019-02-09T12:46:18.824Z,19.70
2019-02-09T12:48:26.241Z,19.47
2019-02-09T12:50:35.246Z,19.83
2019-02-09T12:52:42.762Z,20.10
2019-02-09T12:54:50.171Z,18.77
2019-02-09T12:56:57.639Z,19.73
2019-02-09T12:59:05.148Z,18.60
2019-02-09T13:01:12.651Z,18.07
2019-02-09T13:03:31.350Z,18.80
2019-02-09T13:05:38.991Z,18.53
2019-02-09T13:07:46.501Z,18.83
2019-02-09T13:09:53.975Z,20.20
2019-02-09T13:12:01.520Z,20.03
2019-02-09T13:14:09.112Z,21.17
2019-02-09T13:16:16.723Z,20.80
2019-02-09T13:18:24.310Z,21.73
2019-02-09T13:20:31.482Z,21.10
2019-02-09T13:22:39.235Z,21.70
2019-02-09T13:24:46.773Z,20.53
2019-02-09T13:26:54.173Z,20.73
2019-02-09T13:29:01.691Z,20.77
2019-02-09T13:31:08.785Z,22.73
2019-02-09T13:33:16.308Z,20.70
2019-02-09T13:35:23.772Z,20.43
2019-02-09T13:37:31.202Z,23.40
2019-02-09T13:39:38.573Z,22.77
2019-02-09T13:41:45.774Z,23.57
2019-02-09T13:43:53.475Z,20.80
2019-02-09T13:46:00.831Z,21.90
2019-02-09T13:48:08.353Z,22.43
2019-02-09T13:50:15.922Z,21.93
2019-02-09T13:52:23.386Z,21.23
2019-02-09T13:54:30.844Z,21.60
2019-02-09T13:56:38.320Z,22.20
2019-02-09T13:58:45.811Z,22.57
2019-02-09T14:00:53.205Z,20.80
2019-02-09T14:03:00.693Z,21.30
2019-02-09T14:05:08.706Z,21.97
2019-02-09T14:07:16.477Z,23.87
2019-02-09T14:09:24.208Z,24.10
2019-02-09T14:11:31.774Z,23.80
2019-02-09T14:13:39.224Z,23.77
2019-02-09T14:15:46.772Z,23.03
2019-02-09T14:17:54.094Z,23.07
2019-02-09T14:20:01.864Z,22.27
2019-02-09T14:22:09.303Z,23.33
2019-02-09T14:24:16.759Z,23.07
2019-02-09T14:26:24.212Z,23.43
2019-02-09T14:28:31.710Z,24.73
2019-02-09T14:30:39.242Z,22.53
2019-02-09T14:32:46.890Z,28.20
2019-02-09T14:34:54.271Z,27.87
2019-02-09T14:37:01.641Z,32.10
2019-02-09T14:39:12.747Z,28.17
2019-02-09T14:41:20.010Z,28.47
2019-02-09T14:43:27.522Z,25.07
2019-02-09T14:45:41.080Z,24.40
2019-02-09T14:47:48.910Z,23.20
2019-02-09T14:49:56.572Z,23.90
2019-02-09T14:52:04.780Z,25.03
2019-02-09T14:54:13.012Z,24.63
2019-02-09T14:56:20.613Z,24.63
2019-02-09T14:58:28.687Z,27.00
2019-02-09T15:00:59.165Z,25.97
2019-02-09T15:03:08.337Z,22.13
2019-02-09T15:05:16.314Z,23.20
2019-02-09T15:07:24.021Z,23.37
2019-02-09T15:09:31.485Z,20.07
2019-02-09T15:11:38.904Z,22.50
2019-02-09T15:13:46.425Z,20.57
2019-02-09T15:16:14.667Z,23.87
2019-02-09T15:18:22.146Z,21.63
2019-02-09T15:20:33.905Z,22.13
2019-02-09T15:22:41.660Z,23.13
2019-02-09T15:24:49.375Z,22.80
2019-02-09T15:26:57.057Z,22.37
2019-02-09T15:29:04.579Z,24.07
2019-02-09T15:31:13.081Z,21.00
2019-02-09T15:33:20.768Z,22.03
2019-02-09T15:35:28.164Z,20.30
2019-02-09T15:37:35.851Z,20.60
2019-02-09T15:39:43.259Z,19.97
2019-02-09T15:41:50.765Z,19.53
2019-02-09T15:43:58.280Z,24.67
2019-02-09T15:46:05.840Z,21.77
2019-02-09T15:48:13.407Z,22.67
2019-02-09T15:50:20.834Z,20.50
2019-02-09T15:52:28.499Z,19.63
2019-02-09T15:54:36.384Z,20.80
2019-02-09T15:56:43.890Z,22.13
2019-02-09T15:58:51.354Z,19.83
2019-02-09T16:00:58.873Z,20.03
2019-02-09T16:03:07.084Z,20.40
2019-02-09T16:05:14.816Z,19.07
2019-02-09T16:07:22.243Z,21.47
2019-02-09T16:09:30.151Z,27.33
2019-02-09T16:11:37.695Z,20.97
2019-02-09T16:13:45.973Z,24.20
2019-02-09T16:15:53.609Z,22.40
2019-02-09T16:18:01.496Z,22.73
2019-02-09T16:20:10.999Z,24.37
2019-02-09T16:22:18.932Z,23.63
2019-02-09T16:24:26.629Z,23.17
2019-02-09T16:26:34.216Z,21.40
2019-02-09T16:28:41.685Z,19.90
2019-02-09T16:30:49.295Z,19.83
2019-02-09T16:32:56.893Z,18.47
2019-02-09T16:35:04.451Z,22.27
2019-02-09T16:37:12.035Z,22.23
2019-02-09T16:39:19.592Z,20.97
2019-02-09T16:41:27.066Z,21.50
2019-02-09T16:43:34.763Z,20.30
2019-02-09T16:45:42.112Z,21.43
2019-02-09T16:47:50.367Z,19.53
2019-02-09T16:49:57.934Z,19.63
2019-02-09T16:52:05.634Z,21.13
2019-02-09T16:54:12.966Z,19.83
2019-02-09T16:56:20.847Z,20.83
2019-02-09T16:58:28.401Z,19.97
2019-02-09T17:00:41.308Z,21.43
2019-02-09T17:02:48.759Z,19.87
2019-02-09T17:04:56.390Z,19.47
2019-02-09T17:07:03.811Z,17.23
2019-02-09T17:09:11.658Z,18.63
2019-02-09T17:11:19.360Z,17.30
2019-02-09T17:13:26.877Z,21.60
2019-02-09T17:15:34.370Z,21.57
2019-02-09T17:17:41.958Z,26.87
2019-02-09T17:19:50.411Z,23.60
2019-02-09T17:21:58.021Z,29.17
2019-02-09T17:24:05.981Z,23.43
2019-02-09T17:26:15.021Z,23.50
2019-02-09T17:28:22.758Z,23.17
2019-02-09T17:30:30.993Z,19.03
2019-02-09T17:32:38.883Z,19.53
2019-02-09T17:34:46.505Z,18.37
2019-02-09T17:36:53.988Z,17.13
2019-02-09T17:39:01.826Z,17.73
2019-02-09T17:41:09.424Z,17.03
2019-02-09T17:43:17.037Z,16.03
2019-02-09T17:45:31.171Z,19.17
2019-02-09T17:47:38.851Z,20.37
2019-02-09T17:49:46.679Z,21.83
2019-02-09T17:51:54.440Z,26.10
2019-02-09T17:54:01.852Z,19.40
2019-02-09T17:56:09.538Z,18.43
2019-02-09T17:58:17.340Z,19.70
2019-02-09T18:00:48.487Z,17.33
2019-02-09T18:02:56.197Z,17.53
2019-02-09T18:05:03.724Z,19.90
2019-02-09T18:07:11.417Z,23.20
2019-02-09T18:09:18.986Z,29.07
2019-02-09T18:11:26.585Z,29.60
2019-02-09T18:13:34.010Z,27.30
2019-02-09T18:15:41.594Z,23.47
2019-02-09T18:17:49.046Z,23.43
2019-02-09T18:19:56.589Z,21.73
2019-02-09T18:22:04.070Z,22.80
2019-02-09T18:24:11.662Z,18.43
2019-02-09T18:26:19.108Z,17.97
2019-02-09T18:28:26.820Z,15.40
2019-02-09T18:30:34.193Z,17.60
2019-02-09T18:32:41.732Z,17.67
2019-02-09T18:34:55.874Z,16.73
2019-02-09T18:36:58.732Z,16.10
2019-02-09T18:39:10.852Z,17.80
2019-02-09T18:41:18.285Z,16.57
2019-02-09T18:43:25.844Z,17.67
2019-02-09T18:45:33.284Z,16.80
2019-02-09T18:47:40.804Z,16.50
2019-02-09T18:49:48.364Z,17.50
2019-02-09T18:51:55.973Z,19.37
2019-02-09T18:54:03.597Z,19.90
2019-02-09T18:56:11.064Z,20.77
2019-02-09T18:58:19.798Z,23.53
2019-02-09T19:00:29.905Z,26.60
2019-02-09T19:02:38.620Z,20.20
2019-02-09T19:04:46.589Z,20.33
2019-02-09T19:06:54.570Z,19.73
2019-02-09T19:09:02.194Z,19.37
2019-02-09T19:11:10.286Z,18.13
2019-02-09T19:13:18.095Z,17.57
2019-02-09T19:15:27.506Z,17.47
2019-02-09T19:17:35.402Z,19.03
2019-02-09T19:19:43.127Z,19.07
2019-02-09T19:21:50.646Z,21.17
2019-02-09T19:23:58.341Z,23.47
2019-02-09T19:26:05.843Z,22.13
2019-02-09T19:28:13.280Z,23.37
2019-02-09T19:30:22.417Z,21.57
2019-02-09T19:32:30.367Z,21.13
2019-02-09T19:34:37.931Z,21.17
2019-02-09T19:36:45.799Z,18.23
2019-02-09T19:38:53.309Z,18.90
2019-02-09T19:41:01.125Z,19.07
2019-02-09T19:43:08.629Z,19.80
2019-02-09T19:45:25.767Z,19.67
2019-02-09T19:47:33.471Z,19.30
2019-02-09T19:49:41.024Z,21.23
2019-02-09T19:51:48.593Z,21.37
2019-02-09T19:53:56.239Z,20.27
2019-02-09T19:56:03.969Z,19.40
2019-02-09T19:58:11.543Z,20.30
2019-02-09T20:00:26.018Z,19.23
2019-02-09T20:02:33.734Z,19.03
2019-02-09T20:04:41.411Z,21.20
2019-02-09T20:06:48.906Z,24.60
2019-02-09T20:08:58.062Z,19.00
2019-02-09T20:11:05.295Z,19.30
2019-02-09T20:13:13.051Z,19.60
2019-02-09T20:15:21.125Z,21.03
2019-02-09T20:17:28.922Z,24.63
2019-02-09T20:19:36.600Z,24.60
2019-02-09T20:21:44.434Z,26.03
2019-02-09T20:23:52.006Z,19.80
2019-02-09T20:25:59.489Z,19.07
2019-02-09T20:28:07.221Z,18.73
2019-02-09T20:30:24.359Z,20.30
2019-02-09T20:32:31.942Z,20.90
2019-02-09T20:34:39.677Z,21.07
2019-02-09T20:36:47.257Z,20.57
2019-02-09T20:38:54.891Z,20.50
2019-02-09T20:41:06.655Z,21.07
2019-02-09T20:43:16.578Z,19.50
2019-02-09T20:45:24.076Z,20.87
2019-02-09T20:47:31.747Z,21.20
2019-02-09T20:49:40.919Z,20.10
2019-02-09T20:51:48.511Z,19.47
2019-02-09T20:53:55.969Z,20.10
2019-02-09T20:56:03.329Z,21.50
2019-02-09T20:58:12.830Z,21.40
2019-02-09T21:00:22.227Z,20.97
2019-02-09T21:02:29.633Z,19.57
2019-02-09T21:04:37.145Z,19.47
2019-02-09T21:06:44.599Z,18.97
2019-02-09T21:08:52.609Z,24.10
2019-02-09T21:11:00.256Z,23.40
2019-02-09T21:13:08.374Z,22.40
2019-02-09T21:15:16.264Z,20.07
2019-02-09T21:17:23.895Z,21.17
2019-02-09T21:19:31.330Z,20.27
2019-02-09T21:21:38.693Z,21.80
2019-02-09T21:23:46.282Z,21.20
2019-02-09T21:25:53.547Z,18.73
2019-02-09T21:28:01.113Z,18.40
2019-02-09T21:30:09.774Z,20.97
2019-02-09T21:32:17.268Z,20.47
2019-02-09T21:34:24.830Z,18.80
2019-02-09T21:36:32.493Z,19.80
2019-02-09T21:38:40.043Z,17.83
2019-02-09T21:40:47.298Z,18.07
2019-02-09T21:42:55.943Z,18.10
2019-02-09T21:45:03.569Z,18.87
2019-02-09T21:47:11.331Z,17.27
2019-02-09T21:49:19.153Z,19.13
2019-02-09T21:51:26.625Z,17.87
2019-02-09T21:53:34.190Z,17.70
2019-02-09T21:55:42.288Z,18.80
2019-02-09T21:57:49.882Z,17.17
2019-02-09T21:59:57.402Z,17.40
2019-02-09T22:02:05.260Z,18.53
2019-02-09T22:04:13.391Z,17.53
2019-02-09T22:06:21.267Z,18.00
2019-02-09T22:08:28.906Z,18.30
2019-02-09T22:10:36.427Z,18.60
2019-02-09T22:12:44.417Z,16.87
2019-02-09T22:14:52.263Z,18.20
2019-02-09T22:17:00.154Z,17.87
2019-02-09T22:19:07.667Z,17.10
2019-02-09T22:21:15.146Z,17.83
2019-02-09T22:23:22.838Z,18.37
2019-02-09T22:25:30.209Z,17.63
2019-02-09T22:27:38.377Z,18.53
2019-02-09T22:29:46.783Z,17.27
2019-02-09T22:31:54.788Z,20.20
2019-02-09T22:34:02.546Z,19.47
2019-02-09T22:36:09.956Z,18.47
2019-02-09T22:38:17.540Z,18.00
2019-02-09T22:40:31.064Z,20.07
2019-02-09T22:42:38.758Z,17.90
2019-02-09T22:44:46.662Z,16.63
2019-02-09T22:46:55.542Z,16.47
2019-02-09T22:49:04.739Z,18.40
2019-02-09T22:51:12.445Z,28.47
2019-02-09T22:53:20.131Z,28.43
2019-02-09T22:55:28.119Z,17.03
2019-02-09T22:57:35.713Z,18.30
2019-02-09T22:59:43.681Z,17.53
2019-02-09T23:01:52.342Z,24.67
2019-02-09T23:04:28.151Z,16.80
2019-02-09T23:07:04.486Z,40.67
2019-02-09T23:09:22.466Z,48.17
2019-02-09T23:11:37.337Z,19.30
2019-02-09T23:13:55.021Z,17.13
2019-02-09T23:16:11.730Z,42.50
2019-02-09T23:18:19.738Z,17.20
2019-02-09T23:20:27.342Z,16.70
2019-02-09T23:22:34.812Z,23.53
2019-02-09T23:24:45.245Z,19.90
2019-02-09T23:26:52.792Z,18.00
2019-02-09T23:29:00.538Z,20.23
2019-02-09T23:31:08.225Z,17.00
2019-02-09T23:33:15.983Z,18.13
2019-02-09T23:35:23.339Z,19.13
2019-02-09T23:37:30.911Z,16.67
2019-02-09T23:39:38.552Z,20.40
2019-02-09T23:41:46.059Z,15.00
2019-02-09T23:43:53.647Z,17.40
2019-02-09T23:46:01.364Z,16.67
2019-02-09T23:48:08.818Z,16.87
2019-02-09T23:50:16.364Z,23.27
2019-02-09T23:52:23.993Z,18.73
2019-02-09T23:54:31.485Z,18.23
2019-02-09T23:56:38.943Z,18.13
2019-02-09T23:58:46.472Z,17.33
